sensor_id;sensor_type;location;lat;lon;timestamp;temperature;humidity
18091;DHT22;9172;49.948;9.208;2023-06-14T00:00:31;19.20;80.40
18091;DHT22;9172;49.948;9.208;2023-06-14T00:03:02;19.20;80.50
18091;DHT22;9172;49.948;9.208;2023-06-14T00:05:31;19.10;80.70
18091;DHT22;9172;49.948;9.208;2023-06-14T00:08:03;19.10;80.90
18091;DHT22;9172;49.948;9.208;2023-06-14T00:10:34;18.90;81.50
18091;DHT22;9172;49.948;9.208;2023-06-14T00:13:03;18.80;81.70
18091;DHT22;9172;49.948;9.208;2023-06-14T00:15:32;18.70;82.40
18091;DHT22;9172;49.948;9.208;2023-06-14T00:18:01;18.70;82.50
18091;DHT22;9172;49.948;9.208;2023-06-14T00:20:31;18.60;82.30
18091;DHT22;9172;49.948;9.208;2023-06-14T00:23:00;18.70;82.80
18091;DHT22;9172;49.948;9.208;2023-06-14T00:25:31;18.70;82.00
18091;DHT22;9172;49.948;9.208;2023-06-14T00:28:00;18.60;82.70
18091;DHT22;9172;49.948;9.208;2023-06-14T00:30:31;18.60;82.40
18091;DHT22;9172;49.948;9.208;2023-06-14T00:33:01;18.60;82.70
18091;DHT22;9172;49.948;9.208;2023-06-14T00:35:29;18.60;82.90
18091;DHT22;9172;49.948;9.208;2023-06-14T00:37:59;18.60;82.80
18091;DHT22;9172;49.948;9.208;2023-06-14T00:40:27;18.60;82.40
18091;DHT22;9172;49.948;9.208;2023-06-14T00:42:56;18.60;82.40
18091;DHT22;9172;49.948;9.208;2023-06-14T00:45:24;18.70;82.50
18091;DHT22;9172;49.948;9.208;2023-06-14T00:47:54;18.70;82.90
18091;DHT22;9172;49.948;9.208;2023-06-14T00:53:01;18.60;82.40
18091;DHT22;9172;49.948;9.208;2023-06-14T00:55:31;18.60;82.40
18091;DHT22;9172;49.948;9.208;2023-06-14T00:58:01;18.70;82.40
18091;DHT22;9172;49.948;9.208;2023-06-14T01:03:07;18.70;82.60
18091;DHT22;9172;49.948;9.208;2023-06-14T01:05:37;18.60;82.70
18091;DHT22;9172;49.948;9.208;2023-06-14T01:08:21;18.40;83.10
18091;DHT22;9172;49.948;9.208;2023-06-14T01:10:50;18.40;83.40
18091;DHT22;9172;49.948;9.208;2023-06-14T01:13:23;18.30;83.70
18091;DHT22;9172;49.948;9.208;2023-06-14T01:15:53;18.30;83.70
18091;DHT22;9172;49.948;9.208;2023-06-14T01:18:22;18.20;84.10
18091;DHT22;9172;49.948;9.208;2023-06-14T01:23:29;18.20;84.20
18091;DHT22;9172;49.948;9.208;2023-06-14T01:26:00;18.20;84.50
18091;DHT22;9172;49.948;9.208;2023-06-14T01:28:30;18.10;84.80
18091;DHT22;9172;49.948;9.208;2023-06-14T01:31:02;18.10;84.90
18091;DHT22;9172;49.948;9.208;2023-06-14T01:33:33;18.00;85.30
18091;DHT22;9172;49.948;9.208;2023-06-14T01:36:05;17.90;85.60
18091;DHT22;9172;49.948;9.208;2023-06-14T01:38:34;17.80;86.20
18091;DHT22;9172;49.948;9.208;2023-06-14T01:41:05;17.70;86.50
18091;DHT22;9172;49.948;9.208;2023-06-14T01:43:35;17.70;86.90
18091;DHT22;9172;49.948;9.208;2023-06-14T01:46:04;17.60;86.80
18091;DHT22;9172;49.948;9.208;2023-06-14T01:48:35;17.60;87.10
18091;DHT22;9172;49.948;9.208;2023-06-14T01:51:04;17.50;87.30
18091;DHT22;9172;49.948;9.208;2023-06-14T01:53:32;17.40;87.80
18091;DHT22;9172;49.948;9.208;2023-06-14T01:56:01;17.40;88.10
18091;DHT22;9172;49.948;9.208;2023-06-14T01:58:30;17.30;88.40
18091;DHT22;9172;49.948;9.208;2023-06-14T02:00:59;17.20;88.00
18091;DHT22;9172;49.948;9.208;2023-06-14T02:03:29;17.20;88.80
18091;DHT22;9172;49.948;9.208;2023-06-14T02:05:58;17.20;88.70
18091;DHT22;9172;49.948;9.208;2023-06-14T02:08:26;17.30;88.90
18091;DHT22;9172;49.948;9.208;2023-06-14T02:10:56;17.30;88.80
18091;DHT22;9172;49.948;9.208;2023-06-14T02:13:25;17.30;88.70
18091;DHT22;9172;49.948;9.208;2023-06-14T02:15:53;17.30;89.00
18091;DHT22;9172;49.948;9.208;2023-06-14T02:18:22;17.10;89.40
18091;DHT22;9172;49.948;9.208;2023-06-14T02:20:52;17.00;89.90
18091;DHT22;9172;49.948;9.208;2023-06-14T02:23:21;16.90;90.10
18091;DHT22;9172;49.948;9.208;2023-06-14T02:25:50;16.90;90.00
18091;DHT22;9172;49.948;9.208;2023-06-14T02:28:18;17.10;89.80
18091;DHT22;9172;49.948;9.208;2023-06-14T02:30:47;17.10;89.90
18091;DHT22;9172;49.948;9.208;2023-06-14T02:33:16;17.20;89.70
18091;DHT22;9172;49.948;9.208;2023-06-14T02:35:45;17.30;89.50
18091;DHT22;9172;49.948;9.208;2023-06-14T02:38:14;17.30;89.40
18091;DHT22;9172;49.948;9.208;2023-06-14T02:40:43;17.30;89.60
18091;DHT22;9172;49.948;9.208;2023-06-14T02:43:12;17.30;89.70
18091;DHT22;9172;49.948;9.208;2023-06-14T02:48:19;17.30;89.60
18091;DHT22;9172;49.948;9.208;2023-06-14T02:50:48;17.40;89.30
18091;DHT22;9172;49.948;9.208;2023-06-14T02:53:18;17.40;89.60
18091;DHT22;9172;49.948;9.208;2023-06-14T02:55:46;17.40;89.50
18091;DHT22;9172;49.948;9.208;2023-06-14T02:58:15;17.40;89.40
18091;DHT22;9172;49.948;9.208;2023-06-14T03:03:24;17.50;89.20
18091;DHT22;9172;49.948;9.208;2023-06-14T03:05:55;17.50;89.20
18091;DHT22;9172;49.948;9.208;2023-06-14T03:08:24;17.50;90.00
18091;DHT22;9172;49.948;9.208;2023-06-14T03:10:55;17.30;90.10
18091;DHT22;9172;49.948;9.208;2023-06-14T03:13:24;17.30;90.10
18091;DHT22;9172;49.948;9.208;2023-06-14T03:15:54;17.30;90.20
18091;DHT22;9172;49.948;9.208;2023-06-14T03:21:00;17.20;90.20
18091;DHT22;9172;49.948;9.208;2023-06-14T03:23:29;17.20;90.30
18091;DHT22;9172;49.948;9.208;2023-06-14T03:25:58;17.00;90.40
18091;DHT22;9172;49.948;9.208;2023-06-14T03:28:29;16.90;90.60
18091;DHT22;9172;49.948;9.208;2023-06-14T03:30:57;17.00;90.60
18091;DHT22;9172;49.948;9.208;2023-06-14T03:33:25;17.00;90.40
18091;DHT22;9172;49.948;9.208;2023-06-14T03:35:54;17.00;90.60
18091;DHT22;9172;49.948;9.208;2023-06-14T03:38:23;17.10;90.60
18091;DHT22;9172;49.948;9.208;2023-06-14T03:40:52;17.10;90.50
18091;DHT22;9172;49.948;9.208;2023-06-14T03:43:20;17.10;90.40
18091;DHT22;9172;49.948;9.208;2023-06-14T03:45:49;17.20;90.30
18091;DHT22;9172;49.948;9.208;2023-06-14T03:50:54;17.20;90.20
18091;DHT22;9172;49.948;9.208;2023-06-14T03:56:03;17.20;90.30
18091;DHT22;9172;49.948;9.208;2023-06-14T03:58:32;17.10;90.40
18091;DHT22;9172;49.948;9.208;2023-06-14T04:01:02;17.10;90.40
18091;DHT22;9172;49.948;9.208;2023-06-14T04:03:31;17.10;90.50
18091;DHT22;9172;49.948;9.208;2023-06-14T04:06:00;17.10;90.80
18091;DHT22;9172;49.948;9.208;2023-06-14T04:08:30;17.10;90.50
18091;DHT22;9172;49.948;9.208;2023-06-14T04:10:58;17.00;90.70
18091;DHT22;9172;49.948;9.208;2023-06-14T04:13:28;17.00;90.60
18091;DHT22;9172;49.948;9.208;2023-06-14T04:15:56;17.00;90.90
18091;DHT22;9172;49.948;9.208;2023-06-14T04:18:26;17.00;91.00
18091;DHT22;9172;49.948;9.208;2023-06-14T04:20:55;17.00;90.80
18091;DHT22;9172;49.948;9.208;2023-06-14T04:23:25;17.00;91.30
18091;DHT22;9172;49.948;9.208;2023-06-14T04:25:55;17.00;91.30
18091;DHT22;9172;49.948;9.208;2023-06-14T04:28:25;16.80;91.20
18091;DHT22;9172;49.948;9.208;2023-06-14T04:30:55;16.80;91.30
18091;DHT22;9172;49.948;9.208;2023-06-14T04:36:03;16.80;91.30
18091;DHT22;9172;49.948;9.208;2023-06-14T04:38:31;16.60;91.20
18091;DHT22;9172;49.948;9.208;2023-06-14T04:41:01;16.60;91.40
18091;DHT22;9172;49.948;9.208;2023-06-14T04:46:09;16.60;91.40
18091;DHT22;9172;49.948;9.208;2023-06-14T04:48:39;16.60;91.50
18091;DHT22;9172;49.948;9.208;2023-06-14T04:51:10;16.50;91.40
18091;DHT22;9172;49.948;9.208;2023-06-14T04:53:39;16.50;91.60
18091;DHT22;9172;49.948;9.208;2023-06-14T04:58:45;16.50;91.60
18091;DHT22;9172;49.948;9.208;2023-06-14T05:01:14;16.50;91.70
18091;DHT22;9172;49.948;9.208;2023-06-14T05:03:42;16.50;91.60
18091;DHT22;9172;49.948;9.208;2023-06-14T05:06:12;16.50;91.80
18091;DHT22;9172;49.948;9.208;2023-06-14T05:08:41;16.50;91.90
18091;DHT22;9172;49.948;9.208;2023-06-14T05:11:11;16.50;91.90
18091;DHT22;9172;49.948;9.208;2023-06-14T05:13:39;16.50;91.90
18091;DHT22;9172;49.948;9.208;2023-06-14T05:16:10;16.50;92.20
18091;DHT22;9172;49.948;9.208;2023-06-14T05:18:39;16.50;92.20
18091;DHT22;9172;49.948;9.208;2023-06-14T05:21:08;16.50;92.30
18091;DHT22;9172;49.948;9.208;2023-06-14T05:26:15;16.60;92.20
18091;DHT22;9172;49.948;9.208;2023-06-14T05:28:44;16.70;92.10
18091;DHT22;9172;49.948;9.208;2023-06-14T05:31:13;16.80;92.00
18091;DHT22;9172;49.948;9.208;2023-06-14T05:33:42;16.90;92.00
18091;DHT22;9172;49.948;9.208;2023-06-14T05:36:12;16.90;91.90
18091;DHT22;9172;49.948;9.208;2023-06-14T05:38:41;17.00;92.20
18091;DHT22;9172;49.948;9.208;2023-06-14T05:43:49;17.20;92.00
18091;DHT22;9172;49.948;9.208;2023-06-14T05:46:19;17.20;91.90
18091;DHT22;9172;49.948;9.208;2023-06-14T05:48:50;17.20;92.20
18091;DHT22;9172;49.948;9.208;2023-06-14T05:51:19;17.30;91.90
18091;DHT22;9172;49.948;9.208;2023-06-14T05:53:48;17.40;92.30
18091;DHT22;9172;49.948;9.208;2023-06-14T05:56:17;17.50;92.00
18091;DHT22;9172;49.948;9.208;2023-06-14T05:58:46;17.60;91.70
18091;DHT22;9172;49.948;9.208;2023-06-14T06:01:15;17.60;91.40
18091;DHT22;9172;49.948;9.208;2023-06-14T06:03:43;17.60;91.60
18091;DHT22;9172;49.948;9.208;2023-06-14T06:06:13;17.60;91.70
18091;DHT22;9172;49.948;9.208;2023-06-14T06:08:43;17.60;91.50
18091;DHT22;9172;49.948;9.208;2023-06-14T06:13:49;17.80;92.00
18091;DHT22;9172;49.948;9.208;2023-06-14T06:16:18;17.70;91.30
18091;DHT22;9172;49.948;9.208;2023-06-14T06:18:46;17.60;91.50
18091;DHT22;9172;49.948;9.208;2023-06-14T06:21:16;17.60;91.70
18091;DHT22;9172;49.948;9.208;2023-06-14T06:26:23;17.90;91.60
18091;DHT22;9172;49.948;9.208;2023-06-14T06:28:53;18.00;91.50
18091;DHT22;9172;49.948;9.208;2023-06-14T06:31:22;18.00;91.20
18091;DHT22;9172;49.948;9.208;2023-06-14T06:33:51;18.10;90.90
18091;DHT22;9172;49.948;9.208;2023-06-14T06:36:21;18.20;91.20
18091;DHT22;9172;49.948;9.208;2023-06-14T06:38:51;18.40;91.00
18091;DHT22;9172;49.948;9.208;2023-06-14T06:41:20;18.60;91.10
18091;DHT22;9172;49.948;9.208;2023-06-14T06:43:48;18.70;90.40
18091;DHT22;9172;49.948;9.208;2023-06-14T06:46:18;18.90;90.60
18091;DHT22;9172;49.948;9.208;2023-06-14T06:48:47;19.10;90.30
18091;DHT22;9172;49.948;9.208;2023-06-14T06:51:18;19.20;90.10
18091;DHT22;9172;49.948;9.208;2023-06-14T06:53:52;19.40;90.20
18091;DHT22;9172;49.948;9.208;2023-06-14T06:56:21;19.40;89.80
18091;DHT22;9172;49.948;9.208;2023-06-14T06:58:50;19.50;89.60
18091;DHT22;9172;49.948;9.208;2023-06-14T07:01:19;19.40;89.10
18091;DHT22;9172;49.948;9.208;2023-06-14T07:03:48;19.30;89.00
18091;DHT22;9172;49.948;9.208;2023-06-14T07:06:17;19.40;89.30
18091;DHT22;9172;49.948;9.208;2023-06-14T07:08:46;19.30;89.80
18091;DHT22;9172;49.948;9.208;2023-06-14T07:11:16;19.50;89.10
18091;DHT22;9172;49.948;9.208;2023-06-14T07:13:47;19.70;89.10
18091;DHT22;9172;49.948;9.208;2023-06-14T07:16:16;19.90;88.60
18091;DHT22;9172;49.948;9.208;2023-06-14T07:18:45;20.00;87.60
18091;DHT22;9172;49.948;9.208;2023-06-14T07:21:14;20.10;87.40
18091;DHT22;9172;49.948;9.208;2023-06-14T07:26:20;20.20;87.90
18091;DHT22;9172;49.948;9.208;2023-06-14T07:28:48;20.20;86.20
18091;DHT22;9172;49.948;9.208;2023-06-14T07:31:19;20.20;86.60
18091;DHT22;9172;49.948;9.208;2023-06-14T07:33:48;20.30;87.00
18091;DHT22;9172;49.948;9.208;2023-06-14T07:36:17;20.30;87.10
18091;DHT22;9172;49.948;9.208;2023-06-14T07:38:46;20.50;85.80
18091;DHT22;9172;49.948;9.208;2023-06-14T07:43:53;20.50;85.90
18091;DHT22;9172;49.948;9.208;2023-06-14T07:46:24;20.60;85.60
18091;DHT22;9172;49.948;9.208;2023-06-14T07:48:52;20.70;85.70
18091;DHT22;9172;49.948;9.208;2023-06-14T07:54:01;20.80;85.70
18091;DHT22;9172;49.948;9.208;2023-06-14T07:56:30;20.90;85.00
18091;DHT22;9172;49.948;9.208;2023-06-14T07:58:59;20.90;84.90
18091;DHT22;9172;49.948;9.208;2023-06-14T08:01:29;20.90;84.80
18091;DHT22;9172;49.948;9.208;2023-06-14T08:03:58;20.90;84.90
18091;DHT22;9172;49.948;9.208;2023-06-14T08:06:27;21.10;86.10
18091;DHT22;9172;49.948;9.208;2023-06-14T08:08:55;21.20;86.20
18091;DHT22;9172;49.948;9.208;2023-06-14T08:11:24;21.30;86.00
18091;DHT22;9172;49.948;9.208;2023-06-14T08:13:52;21.50;85.60
18091;DHT22;9172;49.948;9.208;2023-06-14T08:16:23;21.60;84.40
18091;DHT22;9172;49.948;9.208;2023-06-14T08:18:51;21.40;83.50
18091;DHT22;9172;49.948;9.208;2023-06-14T08:21:20;21.40;84.60
18091;DHT22;9172;49.948;9.208;2023-06-14T08:23:50;21.50;85.60
18091;DHT22;9172;49.948;9.208;2023-06-14T08:28:56;21.60;81.60
18091;DHT22;9172;49.948;9.208;2023-06-14T08:31:25;21.70;82.10
18091;DHT22;9172;49.948;9.208;2023-06-14T08:33:55;21.70;82.40
18091;DHT22;9172;49.948;9.208;2023-06-14T08:36:23;21.80;83.20
18091;DHT22;9172;49.948;9.208;2023-06-14T08:38:54;21.80;82.20
18091;DHT22;9172;49.948;9.208;2023-06-14T08:41:24;21.60;82.40
18091;DHT22;9172;49.948;9.208;2023-06-14T08:43:53;21.80;83.60
18091;DHT22;9172;49.948;9.208;2023-06-14T08:49:01;22.10;81.90
18091;DHT22;9172;49.948;9.208;2023-06-14T08:51:31;22.20;80.00
18091;DHT22;9172;49.948;9.208;2023-06-14T08:54:01;22.10;80.20
18091;DHT22;9172;49.948;9.208;2023-06-14T08:56:31;22.30;81.10
18091;DHT22;9172;49.948;9.208;2023-06-14T08:59:02;22.10;80.90
18091;DHT22;9172;49.948;9.208;2023-06-14T09:01:34;22.20;80.30
18091;DHT22;9172;49.948;9.208;2023-06-14T09:04:03;22.30;80.50
18091;DHT22;9172;49.948;9.208;2023-06-14T09:06:32;22.30;80.30
18091;DHT22;9172;49.948;9.208;2023-06-14T09:09:02;22.20;80.80
18091;DHT22;9172;49.948;9.208;2023-06-14T09:11:31;22.40;79.80
18091;DHT22;9172;49.948;9.208;2023-06-14T09:14:02;22.60;80.50
18091;DHT22;9172;49.948;9.208;2023-06-14T09:16:32;22.80;80.70
18091;DHT22;9172;49.948;9.208;2023-06-14T09:19:02;22.80;79.60
18091;DHT22;9172;49.948;9.208;2023-06-14T09:24:13;22.80;81.20
18091;DHT22;9172;49.948;9.208;2023-06-14T09:26:39;22.90;79.70
18091;DHT22;9172;49.948;9.208;2023-06-14T09:29:09;23.00;79.00
18091;DHT22;9172;49.948;9.208;2023-06-14T09:31:39;22.90;80.10
18091;DHT22;9172;49.948;9.208;2023-06-14T09:34:08;22.90;79.90
18091;DHT22;9172;49.948;9.208;2023-06-14T09:36:38;22.80;80.30
18091;DHT22;9172;49.948;9.208;2023-06-14T09:39:08;22.70;79.30
18091;DHT22;9172;49.948;9.208;2023-06-14T09:41:39;22.80;79.70
18091;DHT22;9172;49.948;9.208;2023-06-14T09:44:09;22.90;77.90
18091;DHT22;9172;49.948;9.208;2023-06-14T09:49:14;23.20;80.20
18091;DHT22;9172;49.948;9.208;2023-06-14T09:51:45;23.30;78.80
18091;DHT22;9172;49.948;9.208;2023-06-14T09:56:51;22.90;78.60
18091;DHT22;9172;49.948;9.208;2023-06-14T10:02:02;23.00;78.00
18091;DHT22;9172;49.948;9.208;2023-06-14T10:04:32;22.70;78.10
18091;DHT22;9172;49.948;9.208;2023-06-14T10:07:03;22.50;77.80
18091;DHT22;9172;49.948;9.208;2023-06-14T10:09:33;22.60;78.00
18091;DHT22;9172;49.948;9.208;2023-06-14T10:12:03;22.90;77.30
18091;DHT22;9172;49.948;9.208;2023-06-14T10:14:34;23.10;76.70
18091;DHT22;9172;49.948;9.208;2023-06-14T10:17:06;23.10;75.80
18091;DHT22;9172;49.948;9.208;2023-06-14T10:22:11;23.00;78.50
18091;DHT22;9172;49.948;9.208;2023-06-14T10:27:25;22.60;79.60
18091;DHT22;9172;49.948;9.208;2023-06-14T10:30:08;22.40;79.30
18091;DHT22;9172;49.948;9.208;2023-06-14T10:35:16;22.40;79.20
18091;DHT22;9172;49.948;9.208;2023-06-14T10:37:48;22.30;77.40
18091;DHT22;9172;49.948;9.208;2023-06-14T10:43:21;22.00;80.60
18091;DHT22;9172;49.948;9.208;2023-06-14T10:46:15;22.20;80.70
18091;DHT22;9172;49.948;9.208;2023-06-14T10:48:44;22.20;80.50
18091;DHT22;9172;49.948;9.208;2023-06-14T10:51:20;22.50;79.60
18091;DHT22;9172;49.948;9.208;2023-06-14T10:56:30;22.90;76.90
18091;DHT22;9172;49.948;9.208;2023-06-14T10:58:59;23.00;77.20
18091;DHT22;9172;49.948;9.208;2023-06-14T11:01:33;23.20;78.20
18091;DHT22;9172;49.948;9.208;2023-06-14T11:04:08;23.40;78.70
18091;DHT22;9172;49.948;9.208;2023-06-14T11:06:48;23.40;78.10
18091;DHT22;9172;49.948;9.208;2023-06-14T11:12:31;23.80;75.80
18091;DHT22;9172;49.948;9.208;2023-06-14T11:15:04;23.70;76.10
18091;DHT22;9172;49.948;9.208;2023-06-14T11:17:34;23.80;77.90
18091;DHT22;9172;49.948;9.208;2023-06-14T11:20:09;24.00;75.20
18091;DHT22;9172;49.948;9.208;2023-06-14T11:22:41;24.10;74.80
18091;DHT22;9172;49.948;9.208;2023-06-14T11:25:10;23.60;75.60
18091;DHT22;9172;49.948;9.208;2023-06-14T11:27:41;23.20;75.90
18091;DHT22;9172;49.948;9.208;2023-06-14T11:30:12;23.10;75.70
18091;DHT22;9172;49.948;9.208;2023-06-14T11:32:41;23.10;76.20
18091;DHT22;9172;49.948;9.208;2023-06-14T11:35:10;23.10;75.30
18091;DHT22;9172;49.948;9.208;2023-06-14T11:37:40;23.00;73.30
18091;DHT22;9172;49.948;9.208;2023-06-14T11:40:12;23.00;74.20
18091;DHT22;9172;49.948;9.208;2023-06-14T11:42:41;23.10;74.70
18091;DHT22;9172;49.948;9.208;2023-06-14T11:45:11;23.30;74.00
18091;DHT22;9172;49.948;9.208;2023-06-14T11:47:40;23.30;74.50
18091;DHT22;9172;49.948;9.208;2023-06-14T11:50:10;23.20;75.70
18091;DHT22;9172;49.948;9.208;2023-06-14T11:52:39;23.00;75.50
18091;DHT22;9172;49.948;9.208;2023-06-14T11:55:09;22.90;74.70
18091;DHT22;9172;49.948;9.208;2023-06-14T11:57:38;22.80;75.80
18091;DHT22;9172;49.948;9.208;2023-06-14T12:00:09;22.90;75.70
18091;DHT22;9172;49.948;9.208;2023-06-14T12:02:39;22.80;75.40
18091;DHT22;9172;49.948;9.208;2023-06-14T12:05:09;22.90;74.30
18091;DHT22;9172;49.948;9.208;2023-06-14T12:07:38;23.10;73.60
18091;DHT22;9172;49.948;9.208;2023-06-14T12:10:09;23.40;73.60
18091;DHT22;9172;49.948;9.208;2023-06-14T12:12:39;23.60;74.90
18091;DHT22;9172;49.948;9.208;2023-06-14T12:15:09;23.80;72.90
18091;DHT22;9172;49.948;9.208;2023-06-14T12:17:41;23.80;74.30
18091;DHT22;9172;49.948;9.208;2023-06-14T12:20:13;23.50;74.10
18091;DHT22;9172;49.948;9.208;2023-06-14T12:22:52;23.50;74.80
18091;DHT22;9172;49.948;9.208;2023-06-14T12:25:28;23.20;74.00
18091;DHT22;9172;49.948;9.208;2023-06-14T12:27:59;23.10;74.10
18091;DHT22;9172;49.948;9.208;2023-06-14T12:30:29;22.90;74.70
18091;DHT22;9172;49.948;9.208;2023-06-14T12:32:57;22.90;74.10
18091;DHT22;9172;49.948;9.208;2023-06-14T12:35:27;22.90;74.90
18091;DHT22;9172;49.948;9.208;2023-06-14T12:37:57;22.90;74.70
18091;DHT22;9172;49.948;9.208;2023-06-14T12:40:27;23.00;74.50
18091;DHT22;9172;49.948;9.208;2023-06-14T12:45:33;23.30;75.30
18091;DHT22;9172;49.948;9.208;2023-06-14T12:48:02;23.50;75.40
18091;DHT22;9172;49.948;9.208;2023-06-14T12:50:31;23.60;73.00
18091;DHT22;9172;49.948;9.208;2023-06-14T12:53:01;23.80;73.60
18091;DHT22;9172;49.948;9.208;2023-06-14T12:55:30;23.70;72.70
18091;DHT22;9172;49.948;9.208;2023-06-14T12:57:59;23.50;73.10
18091;DHT22;9172;49.948;9.208;2023-06-14T13:00:29;23.30;72.80
18091;DHT22;9172;49.948;9.208;2023-06-14T13:05:36;23.10;74.10
18091;DHT22;9172;49.948;9.208;2023-06-14T13:08:08;23.10;74.70
18091;DHT22;9172;49.948;9.208;2023-06-14T13:10:37;23.30;74.50
18091;DHT22;9172;49.948;9.208;2023-06-14T13:13:05;23.50;72.90
18091;DHT22;9172;49.948;9.208;2023-06-14T13:15:35;23.50;73.60
18091;DHT22;9172;49.948;9.208;2023-06-14T13:20:41;23.30;72.00
18091;DHT22;9172;49.948;9.208;2023-06-14T13:23:10;23.30;71.60
18091;DHT22;9172;49.948;9.208;2023-06-14T13:25:39;23.20;71.90
18091;DHT22;9172;49.948;9.208;2023-06-14T13:28:08;23.10;71.40
18091;DHT22;9172;49.948;9.208;2023-06-14T13:33:15;23.00;71.80
18091;DHT22;9172;49.948;9.208;2023-06-14T13:35:43;23.10;75.10
18091;DHT22;9172;49.948;9.208;2023-06-14T13:40:49;23.30;74.50
18091;DHT22;9172;49.948;9.208;2023-06-14T13:43:17;23.50;72.60
18091;DHT22;9172;49.948;9.208;2023-06-14T13:48:32;23.30;72.60
18091;DHT22;9172;49.948;9.208;2023-06-14T13:51:01;23.10;72.80
18091;DHT22;9172;49.948;9.208;2023-06-14T13:53:31;23.10;73.50
18091;DHT22;9172;49.948;9.208;2023-06-14T13:58:39;23.30;73.60
18091;DHT22;9172;49.948;9.208;2023-06-14T14:01:09;23.50;73.40
18091;DHT22;9172;49.948;9.208;2023-06-14T14:03:39;23.70;73.50
18091;DHT22;9172;49.948;9.208;2023-06-14T14:06:08;23.80;71.30
18091;DHT22;9172;49.948;9.208;2023-06-14T14:08:37;23.80;71.60
18091;DHT22;9172;49.948;9.208;2023-06-14T14:11:06;23.90;71.90
18091;DHT22;9172;49.948;9.208;2023-06-14T14:13:36;23.80;72.80
18091;DHT22;9172;49.948;9.208;2023-06-14T14:16:05;23.70;70.30
18091;DHT22;9172;49.948;9.208;2023-06-14T14:21:11;23.40;70.60
18091;DHT22;9172;49.948;9.208;2023-06-14T14:23:40;23.10;71.80
18091;DHT22;9172;49.948;9.208;2023-06-14T14:26:09;23.10;71.80
18091;DHT22;9172;49.948;9.208;2023-06-14T14:28:38;23.10;74.00
18091;DHT22;9172;49.948;9.208;2023-06-14T14:31:08;23.20;73.70
18091;DHT22;9172;49.948;9.208;2023-06-14T14:33:37;23.10;72.90
18091;DHT22;9172;49.948;9.208;2023-06-14T14:36:07;23.00;72.80
18091;DHT22;9172;49.948;9.208;2023-06-14T14:38:35;22.80;73.30
18091;DHT22;9172;49.948;9.208;2023-06-14T14:41:05;22.60;73.30
18091;DHT22;9172;49.948;9.208;2023-06-14T14:43:33;22.60;73.40
18091;DHT22;9172;49.948;9.208;2023-06-14T14:46:02;22.60;74.40
18091;DHT22;9172;49.948;9.208;2023-06-14T14:48:32;22.70;75.00
18091;DHT22;9172;49.948;9.208;2023-06-14T14:51:00;22.90;74.60
18091;DHT22;9172;49.948;9.208;2023-06-14T14:53:30;23.00;73.40
18091;DHT22;9172;49.948;9.208;2023-06-14T14:55:58;23.10;74.70
18091;DHT22;9172;49.948;9.208;2023-06-14T14:58:28;23.20;72.80
18091;DHT22;9172;49.948;9.208;2023-06-14T15:00:57;23.20;73.80
18091;DHT22;9172;49.948;9.208;2023-06-14T15:03:27;23.30;73.00
18091;DHT22;9172;49.948;9.208;2023-06-14T15:05:57;23.40;72.70
18091;DHT22;9172;49.948;9.208;2023-06-14T15:08:26;23.40;71.10
18091;DHT22;9172;49.948;9.208;2023-06-14T15:10:56;23.40;72.50
18091;DHT22;9172;49.948;9.208;2023-06-14T15:13:24;23.30;72.80
18091;DHT22;9172;49.948;9.208;2023-06-14T15:18:32;23.30;72.30
18091;DHT22;9172;49.948;9.208;2023-06-14T15:21:02;23.30;72.30
18091;DHT22;9172;49.948;9.208;2023-06-14T15:23:31;23.30;70.40
18091;DHT22;9172;49.948;9.208;2023-06-14T15:25:59;23.30;70.00
18091;DHT22;9172;49.948;9.208;2023-06-14T15:28:29;23.30;71.00
18091;DHT22;9172;49.948;9.208;2023-06-14T15:30:59;23.30;71.00
18091;DHT22;9172;49.948;9.208;2023-06-14T15:33:27;23.40;72.00
18091;DHT22;9172;49.948;9.208;2023-06-14T15:35:57;23.50;70.90
18091;DHT22;9172;49.948;9.208;2023-06-14T15:41:02;23.50;72.80
18091;DHT22;9172;49.948;9.208;2023-06-14T15:43:31;23.50;72.30
18091;DHT22;9172;49.948;9.208;2023-06-14T15:46:00;23.50;72.90
18091;DHT22;9172;49.948;9.208;2023-06-14T15:48:30;23.50;72.50
18091;DHT22;9172;49.948;9.208;2023-06-14T15:50:59;23.40;72.80
18091;DHT22;9172;49.948;9.208;2023-06-14T15:56:05;23.20;72.40
18091;DHT22;9172;49.948;9.208;2023-06-14T15:58:34;23.10;73.20
18091;DHT22;9172;49.948;9.208;2023-06-14T16:01:04;23.00;72.80
18091;DHT22;9172;49.948;9.208;2023-06-14T16:03:33;22.90;72.20
18091;DHT22;9172;49.948;9.208;2023-06-14T16:08:43;22.90;72.00
18091;DHT22;9172;49.948;9.208;2023-06-14T16:11:11;23.00;71.20
18091;DHT22;9172;49.948;9.208;2023-06-14T16:13:41;23.10;72.40
18091;DHT22;9172;49.948;9.208;2023-06-14T16:16:11;23.20;71.40
18091;DHT22;9172;49.948;9.208;2023-06-14T16:18:41;23.40;71.40
18091;DHT22;9172;49.948;9.208;2023-06-14T16:21:10;23.50;71.90
18091;DHT22;9172;49.948;9.208;2023-06-14T16:23:40;23.60;72.80
18091;DHT22;9172;49.948;9.208;2023-06-14T16:26:11;23.60;74.10
18091;DHT22;9172;49.948;9.208;2023-06-14T16:31:18;23.40;70.70
18091;DHT22;9172;49.948;9.208;2023-06-14T16:33:46;23.10;71.70
18091;DHT22;9172;49.948;9.208;2023-06-14T16:36:16;23.00;72.30
18091;DHT22;9172;49.948;9.208;2023-06-14T16:38:46;22.90;72.90
18091;DHT22;9172;49.948;9.208;2023-06-14T16:41:15;23.00;73.60
18091;DHT22;9172;49.948;9.208;2023-06-14T16:43:44;23.00;73.90
18091;DHT22;9172;49.948;9.208;2023-06-14T16:46:15;23.10;74.40
18091;DHT22;9172;49.948;9.208;2023-06-14T16:48:44;23.10;74.60
18091;DHT22;9172;49.948;9.208;2023-06-14T16:51:14;23.20;75.70
18091;DHT22;9172;49.948;9.208;2023-06-14T16:53:42;23.40;75.30
18091;DHT22;9172;49.948;9.208;2023-06-14T16:56:12;23.40;76.60
18091;DHT22;9172;49.948;9.208;2023-06-14T16:58:43;23.40;74.50
18091;DHT22;9172;49.948;9.208;2023-06-14T17:01:12;23.20;73.40
18091;DHT22;9172;49.948;9.208;2023-06-14T17:03:42;23.20;72.80
18091;DHT22;9172;49.948;9.208;2023-06-14T17:06:10;23.00;72.40
18091;DHT22;9172;49.948;9.208;2023-06-14T17:08:40;23.00;72.70
18091;DHT22;9172;49.948;9.208;2023-06-14T17:11:09;23.00;73.10
18091;DHT22;9172;49.948;9.208;2023-06-14T17:13:37;23.00;72.30
18091;DHT22;9172;49.948;9.208;2023-06-14T17:16:07;22.90;73.10
18091;DHT22;9172;49.948;9.208;2023-06-14T17:18:38;22.90;73.70
18091;DHT22;9172;49.948;9.208;2023-06-14T17:23:43;22.80;73.00
18091;DHT22;9172;49.948;9.208;2023-06-14T17:28:48;22.70;74.70
18091;DHT22;9172;49.948;9.208;2023-06-14T17:31:18;22.70;74.50
18091;DHT22;9172;49.948;9.208;2023-06-14T17:33:48;22.80;75.70
18091;DHT22;9172;49.948;9.208;2023-06-14T17:36:16;22.80;74.10
18091;DHT22;9172;49.948;9.208;2023-06-14T17:38:45;22.80;74.20
18091;DHT22;9172;49.948;9.208;2023-06-14T17:41:16;22.80;76.80
18091;DHT22;9172;49.948;9.208;2023-06-14T17:43:44;22.70;78.60
18091;DHT22;9172;49.948;9.208;2023-06-14T17:46:12;22.70;78.40
18091;DHT22;9172;49.948;9.208;2023-06-14T17:48:41;22.60;75.70
18091;DHT22;9172;49.948;9.208;2023-06-14T17:51:10;22.60;76.00
18091;DHT22;9172;49.948;9.208;2023-06-14T17:53:39;22.60;77.20
18091;DHT22;9172;49.948;9.208;2023-06-14T17:58:43;22.50;76.40
18091;DHT22;9172;49.948;9.208;2023-06-14T18:01:12;22.40;76.50